createdAt,value
2019-01-08T00:01:05.103Z,10.13
2019-01-08T00:03:34.600Z,8.13
2019-01-08T00:06:04.094Z,11.20
2019-01-08T00:08:33.617Z,16.13
2019-01-08T00:11:03.601Z,18.57
2019-01-08T00:13:33.108Z,17.83
2019-01-08T00:16:02.654Z,12.73
2019-01-08T00:18:32.209Z,14.80
2019-01-08T00:21:01.789Z,16.97
2019-01-08T00:23:34.260Z,20.67
2019-01-08T00:30:04.370Z,19.20
2019-01-08T00:32:33.891Z,15.20
2019-01-08T00:35:03.541Z,15.90
2019-01-08T00:37:33.132Z,22.37
2019-01-08T00:40:02.603Z,21.60
2019-01-08T00:42:32.173Z,19.50
2019-01-08T00:45:02.153Z,19.73
2019-01-08T00:47:31.719Z,19.90
2019-01-08T00:50:01.324Z,22.43
2019-01-08T00:52:30.904Z,34.80
2019-01-08T00:55:00.451Z,20.07
2019-01-08T00:57:30.022Z,23.67
2019-01-08T00:59:59.571Z,17.53
2019-01-08T01:02:29.089Z,10.43
2019-01-08T01:04:58.593Z,26.80
2019-01-08T01:07:28.419Z,19.30
2019-01-08T01:09:58.009Z,35.87
2019-01-08T01:12:27.573Z,39.50
2019-01-08T01:14:57.242Z,23.80
2019-01-08T01:17:26.731Z,23.07
2019-01-08T01:19:56.267Z,25.30
2019-01-08T01:22:25.777Z,24.50
2019-01-08T01:24:55.347Z,27.37
2019-01-08T01:27:24.883Z,28.80
2019-01-08T01:29:54.486Z,25.07
2019-01-08T01:34:55.595Z,17.17
2019-01-08T01:37:25.606Z,21.37
2019-01-08T01:39:55.247Z,17.97
2019-01-08T01:42:24.977Z,26.13
2019-01-08T01:44:54.840Z,23.10
2019-01-08T01:47:24.344Z,24.13
2019-01-08T01:49:53.848Z,28.13
2019-01-08T01:52:25.262Z,36.17
2019-01-08T01:54:54.761Z,22.10
2019-01-08T01:57:24.349Z,33.43
2019-01-08T01:59:53.866Z,24.27
2019-01-08T02:02:23.385Z,29.23
2019-01-08T02:04:54.660Z,33.70
2019-01-08T02:07:27.027Z,22.63
2019-01-08T02:09:56.546Z,25.93
2019-01-08T02:12:26.111Z,48.37
2019-01-08T02:14:56.442Z,24.80
2019-01-08T02:22:26.740Z,54.80
2019-01-08T02:24:56.423Z,27.90
2019-01-08T02:27:25.909Z,36.00
2019-01-08T02:29:57.011Z,36.67
2019-01-08T02:32:26.495Z,30.03
2019-01-08T02:34:56.095Z,44.73
2019-01-08T02:45:02.330Z,37.17
2019-01-08T02:47:31.819Z,28.70
2019-01-08T02:50:01.579Z,20.00
2019-01-08T02:52:32.293Z,25.10
2019-01-08T02:55:01.787Z,15.03
2019-01-08T02:57:31.285Z,21.83
2019-01-08T03:00:01.303Z,25.90
2019-01-08T03:02:30.805Z,26.93
2019-01-08T03:05:00.305Z,35.77
2019-01-08T03:07:30.101Z,30.73
2019-01-08T03:09:59.602Z,35.80
2019-01-08T03:12:29.944Z,34.40
2019-01-08T03:14:59.455Z,36.33
2019-01-08T03:17:28.923Z,29.53
2019-01-08T03:19:58.410Z,28.93
2019-01-08T03:22:31.695Z,40.47
2019-01-08T03:25:01.168Z,45.73
2019-01-08T03:27:30.661Z,27.57
2019-01-08T03:30:00.186Z,22.70
2019-01-08T03:32:29.669Z,27.27
2019-01-08T03:34:59.712Z,30.07
2019-01-08T03:37:29.638Z,30.03
2019-01-08T03:39:59.109Z,31.60
2019-01-08T03:42:28.622Z,18.73
2019-01-08T03:44:58.890Z,23.00
2019-01-08T03:47:28.386Z,12.40
2019-01-08T03:49:57.868Z,28.83
2019-01-08T03:52:27.403Z,9.37
2019-01-08T03:54:56.895Z,19.13
2019-01-08T03:57:26.396Z,27.00
2019-01-08T03:59:56.376Z,35.97
2019-01-08T04:02:25.888Z,28.57
2019-01-08T04:04:55.386Z,22.63
2019-01-08T04:07:25.308Z,33.07
2019-01-08T04:09:54.873Z,31.73
2019-01-08T04:12:24.360Z,21.53
2019-01-08T04:14:53.900Z,22.97
2019-01-08T04:17:23.367Z,27.03
2019-01-08T04:19:52.845Z,30.23
2019-01-08T04:22:22.373Z,13.77
2019-01-08T04:24:51.878Z,14.20
2019-01-08T04:27:21.380Z,13.37
2019-01-08T04:29:51.437Z,13.40
2019-01-08T04:32:20.936Z,15.83
2019-01-08T04:34:50.434Z,18.40
2019-01-08T04:37:19.958Z,13.60
2019-01-08T04:39:49.455Z,21.20
2019-01-08T04:42:19.000Z,16.17
2019-01-08T04:44:48.498Z,19.83
2019-01-08T04:47:18.002Z,19.67
2019-01-08T04:49:47.491Z,28.23
2019-01-08T04:52:17.114Z,24.63
2019-01-08T04:54:46.571Z,21.27
2019-01-08T04:57:16.050Z,10.57
2019-01-08T04:59:45.580Z,17.40
2019-01-08T05:02:15.923Z,13.90
2019-01-08T05:04:45.406Z,19.03
2019-01-08T05:07:14.909Z,13.20
2019-01-08T05:09:44.392Z,17.03
2019-01-08T05:12:13.905Z,15.33
2019-01-08T05:14:43.746Z,10.40
2019-01-08T05:17:13.225Z,16.37
2019-01-08T05:19:42.694Z,22.77
2019-01-08T05:22:12.207Z,17.27
2019-01-08T05:24:41.684Z,19.00
2019-01-08T05:27:11.196Z,15.03
2019-01-08T05:29:40.691Z,16.03
2019-01-08T05:32:10.173Z,24.10
2019-01-08T05:34:39.680Z,26.40
2019-01-08T05:37:09.256Z,20.00
2019-01-08T05:39:38.750Z,27.93
2019-01-08T05:42:08.252Z,19.27
2019-01-08T05:44:37.770Z,12.00
2019-01-08T05:47:07.260Z,22.80
2019-01-08T05:49:36.759Z,20.73
2019-01-08T05:52:06.280Z,21.43
2019-01-08T05:54:35.775Z,24.07
2019-01-08T05:57:05.273Z,12.63
2019-01-08T05:59:34.874Z,19.07
2019-01-08T06:02:04.368Z,22.10
2019-01-08T06:04:33.864Z,15.10
2019-01-08T06:07:03.414Z,19.40
2019-01-08T06:09:32.910Z,21.50
2019-01-08T06:12:02.417Z,26.10
2019-01-08T06:14:31.922Z,14.17
2019-01-08T06:17:01.393Z,18.07
2019-01-08T06:19:30.901Z,9.97
2019-01-08T06:22:00.631Z,10.13
2019-01-08T06:24:30.112Z,19.37
2019-01-08T06:26:59.626Z,24.13
2019-01-08T06:29:29.157Z,24.53
2019-01-08T06:31:58.656Z,24.57
2019-01-08T06:34:28.201Z,28.70
2019-01-08T06:36:57.756Z,12.93
2019-01-08T06:39:27.250Z,24.87
2019-01-08T06:41:56.755Z,28.87
2019-01-08T06:44:26.339Z,28.07
2019-01-08T06:46:55.875Z,27.50
2019-01-08T06:49:25.391Z,23.10
2019-01-08T06:51:54.916Z,43.97
2019-01-08T06:54:24.391Z,31.40
2019-01-08T06:56:53.882Z,26.53
2019-01-08T06:59:23.730Z,28.60
2019-01-08T07:01:53.209Z,32.00
2019-01-08T07:04:23.743Z,29.20
2019-01-08T07:06:53.586Z,37.13
2019-01-08T07:09:23.064Z,39.67
2019-01-08T07:11:52.563Z,33.27
2019-01-08T07:14:22.112Z,65.10
2019-01-08T07:16:51.577Z,35.43
2019-01-08T07:19:21.061Z,38.20
2019-01-08T07:21:50.571Z,36.33
2019-01-08T07:24:20.047Z,35.93
2019-01-08T07:26:49.575Z,38.27
2019-01-08T07:29:19.275Z,23.50
2019-01-08T07:31:48.753Z,19.47
2019-01-08T07:34:18.253Z,23.40
2019-01-08T07:36:47.773Z,21.60
2019-01-08T07:39:17.250Z,9.87
2019-01-08T07:41:46.758Z,23.47
2019-01-08T07:44:16.272Z,21.57
2019-01-08T07:46:45.895Z,17.80
2019-01-08T07:49:15.481Z,35.40
2019-01-08T07:51:45.200Z,11.27
2019-01-08T07:54:14.691Z,22.17
2019-01-08T07:56:44.269Z,18.77
2019-01-08T07:59:13.786Z,15.40
2019-01-08T08:01:43.285Z,11.83
2019-01-08T08:04:12.789Z,12.33
2019-01-08T08:06:43.342Z,14.17
2019-01-08T08:09:12.863Z,21.20
2019-01-08T08:11:42.336Z,11.67
2019-01-08T08:14:11.885Z,11.50
2019-01-08T08:16:41.357Z,11.93
2019-01-08T08:19:10.867Z,8.07
2019-01-08T08:21:41.269Z,10.30
2019-01-08T08:24:10.770Z,12.70
2019-01-08T08:26:40.318Z,12.33
2019-01-08T08:29:10.320Z,7.83
2019-01-08T08:31:39.805Z,12.30
2019-01-08T08:34:09.303Z,9.10
2019-01-08T08:36:38.955Z,9.13
2019-01-08T08:39:08.471Z,4.93
2019-01-08T08:41:37.960Z,7.43
2019-01-08T08:44:07.482Z,7.50
2019-01-08T08:46:36.948Z,5.60
2019-01-08T08:49:06.468Z,10.23
2019-01-08T08:51:36.009Z,11.57
2019-01-08T08:54:05.476Z,9.13
2019-01-08T08:56:34.969Z,8.87
2019-01-08T08:59:05.062Z,6.40
2019-01-08T09:01:34.548Z,16.00
2019-01-08T09:04:04.033Z,9.10
2019-01-08T09:06:33.539Z,15.70
2019-01-08T09:09:03.590Z,16.33
2019-01-08T09:11:33.077Z,19.83
2019-01-08T09:14:02.585Z,23.43
2019-01-08T09:16:32.049Z,25.70
2019-01-08T09:19:01.998Z,28.10
2019-01-08T09:21:31.858Z,36.23
2019-01-08T09:24:01.339Z,33.07
2019-01-08T09:26:30.848Z,31.53
2019-01-08T09:29:00.381Z,20.57
2019-01-08T09:31:29.871Z,29.37
2019-01-08T09:33:59.363Z,34.10
2019-01-08T09:36:28.892Z,26.37
2019-01-08T09:38:58.389Z,15.33
2019-01-08T09:41:28.169Z,29.53
2019-01-08T09:43:57.822Z,27.67
2019-01-08T09:46:27.316Z,21.37
2019-01-08T09:48:57.284Z,31.03
2019-01-08T09:51:26.805Z,21.83
2019-01-08T09:53:56.304Z,35.73
2019-01-08T09:56:25.796Z,27.40
2019-01-08T09:58:55.324Z,14.33
2019-01-08T10:01:24.814Z,14.23
2019-01-08T10:03:54.306Z,26.63
2019-01-08T10:06:23.853Z,33.27
2019-01-08T10:08:53.650Z,20.00
2019-01-08T10:11:23.149Z,23.60
2019-01-08T10:13:52.668Z,24.53
2019-01-08T10:16:22.143Z,19.80
2019-01-08T10:18:51.649Z,27.03
2019-01-08T10:21:21.165Z,26.57
2019-01-08T10:23:50.648Z,28.73
2019-01-08T10:26:20.122Z,28.17
2019-01-08T10:28:50.153Z,26.40
2019-01-08T10:31:19.643Z,24.60
2019-01-08T10:33:49.175Z,26.03
2019-01-08T10:36:18.706Z,25.10
2019-01-08T10:38:48.201Z,25.17
2019-01-08T10:41:17.724Z,25.73
2019-01-08T10:43:47.244Z,45.97
2019-01-08T10:46:16.733Z,37.73
2019-01-08T10:48:46.224Z,37.57
2019-01-08T10:51:16.011Z,37.17
2019-01-08T10:53:45.505Z,30.30
2019-01-08T10:56:14.989Z,38.57
2019-01-08T10:58:44.511Z,33.93
2019-01-08T11:01:13.999Z,27.23
2019-01-08T11:03:43.481Z,21.43
2019-01-08T11:06:12.974Z,21.27
2019-01-08T11:08:43.425Z,28.03
2019-01-08T11:11:12.905Z,41.10
2019-01-08T11:13:42.642Z,22.63
2019-01-08T11:16:12.150Z,26.13
2019-01-08T11:18:41.654Z,27.73
2019-01-08T11:21:11.176Z,24.07
2019-01-08T11:23:40.662Z,25.03
2019-01-08T11:26:10.144Z,26.83
2019-01-08T11:28:39.657Z,24.93
2019-01-08T11:31:09.153Z,15.93
2019-01-08T11:33:38.649Z,23.03
2019-01-08T11:36:08.253Z,20.53
2019-01-08T11:38:37.738Z,33.17
2019-01-08T11:41:07.247Z,24.77
2019-01-08T11:43:36.772Z,25.00
2019-01-08T11:46:06.288Z,12.17
2019-01-08T11:48:35.904Z,21.73
2019-01-08T11:51:05.386Z,20.00
2019-01-08T11:53:36.638Z,24.70
2019-01-08T11:56:06.102Z,33.60
2019-01-08T11:58:36.033Z,29.87
2019-01-08T12:01:05.540Z,27.07
2019-01-08T12:03:35.026Z,17.13
2019-01-08T12:06:04.542Z,25.30
2019-01-08T12:08:34.044Z,40.57
2019-01-08T12:11:04.580Z,41.63
2019-01-08T12:13:34.175Z,41.00
2019-01-08T12:16:03.642Z,37.07
2019-01-08T12:18:33.137Z,28.77
2019-01-08T12:21:02.949Z,25.13
2019-01-08T12:23:32.411Z,26.30
2019-01-08T12:26:01.904Z,43.27
2019-01-08T12:28:31.399Z,27.60
2019-01-08T12:31:00.929Z,37.23
2019-01-08T12:33:30.410Z,27.20
2019-01-08T12:36:00.018Z,37.13
2019-01-08T12:38:29.512Z,37.70
2019-01-08T12:40:58.986Z,38.00
2019-01-08T12:43:28.779Z,29.97
2019-01-08T12:45:58.267Z,42.87
2019-01-08T12:48:27.763Z,27.43
2019-01-08T12:50:57.281Z,35.70
2019-01-08T12:53:26.797Z,41.13
2019-01-08T12:55:56.261Z,32.90
2019-01-08T12:58:25.800Z,33.63
2019-01-08T13:00:55.271Z,44.10
2019-01-08T13:03:24.761Z,51.20
2019-01-08T13:05:54.324Z,54.00
2019-01-08T13:08:23.796Z,33.50
2019-01-08T13:10:53.284Z,51.27
2019-01-08T13:13:22.816Z,44.20
2019-01-08T13:15:52.299Z,49.37
2019-01-08T13:18:21.796Z,40.90
2019-01-08T13:20:51.391Z,55.27
2019-01-08T13:23:20.868Z,36.70
2019-01-08T13:25:50.358Z,53.17
2019-01-08T13:28:19.970Z,44.30
2019-01-08T13:30:49.404Z,51.23
2019-01-08T13:33:18.912Z,46.63
2019-01-08T13:35:48.443Z,50.20
2019-01-08T13:38:17.917Z,41.10
2019-01-08T13:40:47.402Z,44.27
2019-01-08T13:43:16.934Z,52.47
2019-01-08T13:45:46.418Z,52.13
2019-01-08T13:48:15.912Z,59.33
2019-01-08T13:50:45.854Z,49.17
2019-01-08T13:53:15.341Z,42.90
2019-01-08T13:55:44.834Z,51.83
2019-01-08T13:58:14.395Z,48.00
2019-01-08T14:00:43.898Z,43.73
2019-01-08T14:03:13.399Z,35.23
2019-01-08T14:05:43.575Z,39.03
2019-01-08T14:08:13.050Z,38.40
2019-01-08T14:10:42.545Z,31.20
2019-01-08T14:13:12.625Z,42.10
2019-01-08T14:15:42.111Z,28.10
2019-01-08T14:18:11.610Z,34.00
2019-01-08T14:20:41.120Z,36.50
2019-01-08T14:23:10.614Z,42.43
2019-01-08T14:25:40.102Z,31.03
2019-01-08T14:28:09.675Z,30.87
2019-01-08T14:30:39.140Z,25.67
2019-01-08T14:33:08.626Z,43.67
2019-01-08T14:35:38.229Z,34.17
2019-01-08T14:38:07.727Z,33.00
2019-01-08T14:40:37.241Z,34.03
2019-01-08T14:43:13.872Z,43.37
2019-01-08T14:45:37.982Z,33.50
2019-01-08T14:48:07.553Z,28.30
2019-01-08T14:50:37.060Z,23.77
2019-01-08T14:53:06.555Z,21.30
2019-01-08T14:55:36.068Z,18.90
2019-01-08T14:58:05.737Z,11.10
2019-01-08T15:00:35.873Z,4.67
2019-01-08T15:03:05.358Z,11.90
2019-01-08T15:05:34.860Z,6.83
2019-01-08T15:08:04.342Z,8.53
2019-01-08T15:10:33.851Z,21.13
2019-01-08T15:13:03.384Z,5.03
2019-01-08T15:15:33.961Z,9.57
2019-01-08T15:18:03.845Z,9.00
2019-01-08T15:20:33.551Z,6.13
2019-01-08T15:23:03.078Z,21.07
2019-01-08T15:25:32.609Z,11.00
2019-01-08T15:28:02.135Z,3.50
2019-01-08T15:30:31.611Z,3.70
2019-01-08T15:33:01.520Z,2.10
2019-01-08T15:35:31.063Z,1.60
2019-01-08T15:38:01.744Z,6.60
2019-01-08T15:40:31.239Z,3.50
2019-01-08T15:43:00.819Z,4.63
2019-01-08T15:45:30.300Z,2.30
2019-01-08T15:47:59.788Z,1.45
2019-01-08T15:50:29.395Z,4.50
2019-01-08T15:52:58.872Z,2.00
2019-01-08T15:55:28.364Z,0.80
2019-01-08T15:57:57.928Z,1.90
2019-01-08T16:00:27.412Z,0.83
2019-01-08T16:02:56.935Z,5.60
2019-01-08T16:05:26.754Z,13.53
2019-01-08T16:07:56.254Z,1.70
2019-01-08T16:10:26.118Z,1.07
2019-01-08T16:12:55.651Z,2.87
2019-01-08T16:15:25.137Z,9.53
2019-01-08T16:17:55.574Z,0.90
2019-01-08T16:20:25.061Z,1.03
2019-01-08T16:22:54.543Z,1.20
2019-01-08T16:25:28.733Z,1.13
2019-01-08T16:27:58.314Z,3.90
2019-01-08T16:30:28.176Z,3.47
2019-01-08T16:32:58.043Z,3.90
2019-01-08T16:35:27.541Z,4.20
2019-01-08T16:37:57.047Z,1.20
2019-01-08T16:40:26.546Z,5.73
2019-01-08T16:42:56.070Z,1.40
2019-01-08T16:45:25.636Z,1.60
2019-01-08T16:47:55.122Z,5.75
2019-01-08T16:50:24.743Z,1.37
2019-01-08T16:52:54.247Z,4.17
2019-01-08T16:55:23.741Z,3.77
2019-01-08T16:57:53.240Z,7.57
2019-01-08T17:00:22.744Z,2.40
2019-01-08T17:02:52.240Z,12.63
2019-01-08T17:05:21.845Z,8.43
2019-01-08T17:07:51.351Z,4.83
2019-01-08T17:10:20.866Z,1.43
2019-01-08T17:12:51.090Z,5.50
2019-01-08T17:15:20.586Z,3.10
2019-01-08T17:17:50.111Z,4.23
2019-01-08T17:20:19.661Z,12.37
2019-01-08T17:22:49.221Z,1.53
2019-01-08T17:25:18.709Z,1.77
2019-01-08T17:27:48.228Z,6.03
2019-01-08T17:30:17.753Z,5.90
2019-01-08T17:33:07.101Z,6.25
2019-01-08T17:35:36.599Z,11.13
2019-01-08T17:38:06.098Z,1.30
2019-01-08T17:40:35.610Z,5.65
2019-01-08T17:43:05.096Z,2.72
2019-01-08T17:45:34.590Z,3.60
2019-01-08T17:48:04.114Z,7.08
2019-01-08T17:50:35.685Z,1.32
2019-01-08T17:53:04.822Z,7.12
2019-01-08T17:55:34.558Z,2.15
2019-01-08T17:58:32.584Z,8.78
2019-01-08T18:01:06.849Z,3.12
2019-01-08T18:03:42.517Z,0.95
2019-01-08T18:06:08.247Z,6.12
2019-01-08T18:08:37.797Z,3.22
2019-01-08T18:11:07.244Z,1.60
2019-01-08T18:13:36.873Z,3.12
2019-01-08T18:16:06.684Z,2.53
2019-01-08T18:18:36.163Z,6.90
2019-01-08T18:21:05.663Z,2.80
2019-01-08T18:23:35.196Z,3.80
2019-01-08T18:26:04.693Z,1.35
2019-01-08T18:28:34.224Z,1.60
2019-01-08T18:31:03.759Z,3.08
2019-01-08T18:33:33.264Z,2.58
2019-01-08T18:36:02.788Z,4.65
2019-01-08T18:38:32.422Z,7.10
2019-01-08T18:41:01.994Z,1.47
2019-01-08T18:43:31.526Z,2.05
2019-01-08T18:46:01.033Z,1.05
2019-01-08T18:48:30.817Z,2.27
2019-01-08T18:51:00.358Z,1.15
2019-01-08T18:53:29.859Z,1.35
2019-01-08T18:55:59.360Z,8.63
2019-01-08T18:58:28.863Z,1.00
2019-01-08T19:00:58.531Z,1.15
2019-01-08T19:03:28.025Z,3.80
2019-01-08T19:05:57.518Z,3.90
2019-01-08T19:09:04.785Z,2.40
2019-01-08T19:11:34.281Z,2.20
2019-01-08T19:14:03.795Z,2.15
2019-01-08T19:16:33.477Z,1.15
2019-01-08T19:19:02.993Z,1.12
2019-01-08T19:21:32.555Z,0.70
2019-01-08T19:24:02.079Z,1.00
2019-01-08T19:26:31.560Z,0.70
2019-01-08T19:29:01.073Z,1.52
2019-01-08T19:31:30.607Z,0.70
2019-01-08T19:34:08.693Z,2.50
2019-01-08T19:36:31.319Z,1.95
2019-01-08T19:39:00.931Z,0.80
2019-01-08T19:41:30.431Z,2.42
2019-01-08T19:43:59.929Z,0.82
2019-01-08T19:46:29.460Z,7.42
2019-01-08T19:48:59.369Z,2.45
2019-01-08T19:51:28.846Z,3.60
2019-01-08T19:53:58.375Z,1.10
2019-01-08T19:56:27.870Z,3.05
2019-01-08T19:58:57.366Z,1.20
2019-01-08T20:01:26.950Z,6.00
2019-01-08T20:03:56.435Z,2.85
2019-01-08T20:06:25.946Z,1.20
2019-01-08T20:08:55.480Z,2.80
2019-01-08T20:11:24.974Z,2.45
2019-01-08T20:13:54.804Z,1.37
2019-01-08T20:16:24.362Z,1.95
2019-01-08T20:18:53.948Z,0.85
2019-01-08T20:21:23.499Z,3.20
2019-01-08T20:23:53.064Z,0.95
2019-01-08T20:26:22.581Z,0.95
2019-01-08T20:28:52.111Z,5.42
2019-01-08T20:31:41.003Z,0.62
2019-01-08T20:34:10.489Z,0.80
2019-01-08T20:36:39.995Z,3.45
2019-01-08T20:39:12.345Z,2.42
2019-01-08T20:41:41.837Z,3.90
2019-01-08T20:44:11.370Z,1.10
2019-01-08T20:46:40.901Z,1.15
2019-01-08T20:49:10.408Z,0.93
2019-01-08T20:51:39.901Z,1.15
2019-01-08T20:54:09.446Z,3.55
2019-01-08T20:56:38.912Z,2.30
2019-01-08T20:59:08.435Z,0.80
2019-01-08T21:01:38.060Z,2.52
2019-01-08T21:04:07.569Z,1.60
2019-01-08T21:06:37.065Z,1.32
2019-01-08T21:09:07.928Z,1.00
2019-01-08T21:11:37.517Z,0.95
2019-01-08T21:14:07.059Z,2.08
2019-01-08T21:16:36.593Z,9.38
2019-01-08T21:19:06.049Z,1.42
2019-01-08T21:21:35.837Z,8.05
2019-01-08T21:24:05.417Z,3.87
2019-01-08T21:26:34.897Z,0.90
2019-01-08T21:29:04.414Z,1.12
2019-01-08T21:31:33.961Z,2.25
2019-01-08T21:34:03.442Z,3.12
2019-01-08T21:36:32.923Z,1.12
2019-01-08T21:39:02.525Z,2.70
2019-01-08T21:41:32.005Z,1.72
2019-01-08T21:44:01.499Z,1.77
2019-01-08T21:46:31.160Z,1.60
2019-01-08T21:49:00.655Z,1.95
2019-01-08T21:51:30.155Z,1.95
2019-01-08T21:53:59.703Z,5.15
2019-01-08T21:56:29.161Z,4.92
2019-01-08T21:58:58.678Z,2.00
2019-01-08T22:01:28.200Z,5.40
2019-01-08T22:03:57.694Z,2.98
2019-01-08T22:06:27.193Z,5.95
2019-01-08T22:08:57.255Z,6.80
2019-01-08T22:11:26.724Z,5.55
2019-01-08T22:13:56.523Z,2.30
2019-01-08T22:16:27.239Z,6.17
2019-01-08T22:18:58.359Z,4.83
2019-01-08T22:21:27.850Z,5.25
2019-01-08T22:23:57.771Z,4.20
2019-01-08T22:26:27.299Z,3.95
2019-01-08T22:28:56.777Z,4.83
2019-01-08T22:31:26.299Z,3.90
2019-01-08T22:33:55.791Z,5.10
2019-01-08T22:36:25.302Z,5.45
2019-01-08T22:38:54.824Z,8.85
2019-01-08T22:41:24.348Z,7.00
2019-01-08T22:43:53.987Z,3.17
2019-01-08T22:46:23.579Z,6.53
2019-01-08T22:48:53.099Z,7.65
2019-01-08T22:51:22.601Z,5.20
2019-01-08T22:53:52.109Z,5.45
2019-01-08T22:56:21.590Z,11.25
2019-01-08T22:58:51.082Z,1.27
2019-01-08T23:01:22.317Z,5.25
2019-01-08T23:03:51.850Z,7.67
2019-01-08T23:06:21.336Z,2.75
2019-01-08T23:08:51.320Z,1.30
2019-01-08T23:11:20.801Z,1.52
2019-01-08T23:13:50.299Z,2.35
2019-01-08T23:16:19.799Z,7.47
2019-01-08T23:18:49.305Z,6.65
2019-01-08T23:21:18.802Z,4.22
2019-01-08T23:23:48.313Z,3.25
2019-01-08T23:26:17.814Z,7.58
2019-01-08T23:28:47.322Z,2.95
2019-01-08T23:31:17.987Z,6.37
2019-01-08T23:33:47.461Z,10.38
2019-01-08T23:36:16.947Z,4.95
2019-01-08T23:38:46.555Z,6.15
2019-01-08T23:41:16.052Z,2.35
2019-01-08T23:43:45.537Z,3.65
2019-01-08T23:46:15.080Z,13.32
2019-01-08T23:48:44.549Z,5.60
2019-01-08T23:51:14.066Z,9.15
2019-01-08T23:53:47.227Z,15.75
2019-01-08T23:56:16.722Z,8.05
2019-01-08T23:58:46.195Z,3.50
